sensor_id;sensor_type;location;lat;lon;timestamp;pressure;altitude;pressure_sealevel;temperature;humidity
63808;BME280;49961;43.970;22.868;2023-03-29T00:00:29;102085.31;;;3.53;100.00
63808;BME280;49961;43.970;22.868;2023-03-29T00:01:29;102093.19;;;3.54;100.00
63808;BME280;49961;43.970;22.868;2023-03-29T00:02:30;102085.22;;;3.49;100.00
63808;BME280;49961;43.970;22.868;2023-03-29T00:03:30;102066.16;;;3.25;100.00
63808;BME280;49961;43.970;22.868;2023-03-29T00:04:33;102015.44;;;3.04;100.00
63808;BME280;49961;43.970;22.868;2023-03-29T00:05:33;102063.50;;;3.29;100.00
63808;BME280;49961;43.970;22.868;2023-03-29T00:06:35;102094.75;;;3.40;100.00
63808;BME280;49961;43.970;22.868;2023-03-29T00:07:35;102104.53;;;3.41;100.00
63808;BME280;49961;43.970;22.868;2023-03-29T00:08:36;102090.94;;;3.44;100.00
63808;BME280;49961;43.970;22.868;2023-03-29T00:09:39;102099.97;;;3.45;100.00
63808;BME280;49961;43.970;22.868;2023-03-29T00:10:40;102096.31;;;3.41;100.00
63808;BME280;49961;43.970;22.868;2023-03-29T00:11:41;102095.91;;;3.39;100.00
63808;BME280;49961;43.970;22.868;2023-03-29T00:12:42;102094.31;;;3.38;100.00
63808;BME280;49961;43.970;22.868;2023-03-29T00:13:42;102102.63;;;3.41;100.00
63808;BME280;49961;43.970;22.868;2023-03-29T00:14:43;102096.31;;;3.41;100.00
63808;BME280;49961;43.970;22.868;2023-03-29T00:15:43;102101.91;;;3.44;100.00
63808;BME280;49961;43.970;22.868;2023-03-29T00:16:44;102094.16;;;3.46;100.00
63808;BME280;49961;43.970;22.868;2023-03-29T00:17:45;102098.81;;;3.46;100.00
63808;BME280;49961;43.970;22.868;2023-03-29T00:18:46;102093.94;;;3.39;100.00
63808;BME280;49961;43.970;22.868;2023-03-29T00:19:47;102099.41;;;3.39;100.00
63808;BME280;49961;43.970;22.868;2023-03-29T00:20:57;102091.91;;;3.36;100.00
63808;BME280;49961;43.970;22.868;2023-03-29T00:21:58;102098.53;;;3.35;100.00
63808;BME280;49961;43.970;22.868;2023-03-29T00:22:59;102098.97;;;3.37;100.00
63808;BME280;49961;43.970;22.868;2023-03-29T00:23:59;102097.38;;;3.36;100.00
63808;BME280;49961;43.970;22.868;2023-03-29T00:25:00;102096.91;;;3.34;100.00
63808;BME280;49961;43.970;22.868;2023-03-29T00:26:01;102101.38;;;3.39;100.00
63808;BME280;49961;43.970;22.868;2023-03-29T00:27:01;102079.09;;;3.13;100.00
63808;BME280;49961;43.970;22.868;2023-03-29T00:28:02;102101.19;;;3.20;100.00
63808;BME280;49961;43.970;22.868;2023-03-29T00:29:02;102035.81;;;2.79;100.00
63808;BME280;49961;43.970;22.868;2023-03-29T00:30:04;102095.97;;;3.15;100.00
63808;BME280;49961;43.970;22.868;2023-03-29T00:31:07;102096.31;;;3.13;100.00
63808;BME280;49961;43.970;22.868;2023-03-29T00:32:09;102096.25;;;2.86;100.00
63808;BME280;49961;43.970;22.868;2023-03-29T00:33:09;102093.69;;;3.05;100.00
63808;BME280;49961;43.970;22.868;2023-03-29T00:34:10;102098.41;;;2.92;100.00
63808;BME280;49961;43.970;22.868;2023-03-29T00:35:11;102077.22;;;2.89;100.00
63808;BME280;49961;43.970;22.868;2023-03-29T00:36:11;102101.72;;;2.98;100.00
63808;BME280;49961;43.970;22.868;2023-03-29T00:37:12;102101.25;;;2.96;100.00
63808;BME280;49961;43.970;22.868;2023-03-29T00:38:14;102100.81;;;2.94;100.00
63808;BME280;49961;43.970;22.868;2023-03-29T00:39:16;102089.88;;;2.82;100.00
63808;BME280;49961;43.970;22.868;2023-03-29T00:40:17;102038.47;;;2.51;100.00
63808;BME280;49961;43.970;22.868;2023-03-29T00:41:17;101965.44;;;2.04;100.00
63808;BME280;49961;43.970;22.868;2023-03-29T00:42:18;102089.53;;;2.83;100.00
63808;BME280;49961;43.970;22.868;2023-03-29T00:43:19;102098.88;;;2.82;100.00
63808;BME280;49961;43.970;22.868;2023-03-29T00:45:51;102020.03;;;2.36;100.00
63808;BME280;49961;43.970;22.868;2023-03-29T00:46:51;102084.03;;;2.83;100.00
63808;BME280;49961;43.970;22.868;2023-03-29T00:47:54;102095.13;;;2.87;100.00
63808;BME280;49961;43.970;22.868;2023-03-29T00:49:05;102102.97;;;2.88;100.00
63808;BME280;49961;43.970;22.868;2023-03-29T00:50:29;102104.81;;;2.84;100.00
63808;BME280;49961;43.970;22.868;2023-03-29T00:51:33;102102.66;;;2.78;100.00
63808;BME280;49961;43.970;22.868;2023-03-29T00:52:36;102101.75;;;2.74;100.00
63808;BME280;49961;43.970;22.868;2023-03-29T00:53:46;102043.28;;;2.42;100.00
63808;BME280;49961;43.970;22.868;2023-03-29T00:54:51;102101.06;;;2.77;100.00
63808;BME280;49961;43.970;22.868;2023-03-29T00:57:00;102100.16;;;2.73;100.00
63808;BME280;49961;43.970;22.868;2023-03-29T00:58:05;102017.63;;;2.23;100.00
63808;BME280;49961;43.970;22.868;2023-03-29T00:59:13;102101.41;;;2.75;100.00
63808;BME280;49961;43.970;22.868;2023-03-29T01:00:18;102104.59;;;2.77;100.00
63808;BME280;49961;43.970;22.868;2023-03-29T01:01:42;102117.13;;;2.78;100.00
63808;BME280;49961;43.970;22.868;2023-03-29T01:02:48;102111.09;;;2.73;100.00
63808;BME280;49961;43.970;22.868;2023-03-29T01:04:09;102111.78;;;2.70;100.00
63808;BME280;49961;43.970;22.868;2023-03-29T01:05:20;102105.06;;;2.67;100.00
63808;BME280;49961;43.970;22.868;2023-03-29T01:06:26;102103.03;;;2.64;100.00
63808;BME280;49961;43.970;22.868;2023-03-29T01:07:33;102113.84;;;2.61;100.00
63808;BME280;49961;43.970;22.868;2023-03-29T01:08:41;102118.19;;;2.62;100.00
63808;BME280;49961;43.970;22.868;2023-03-29T01:10:09;102120.34;;;2.56;100.00
63808;BME280;49961;43.970;22.868;2023-03-29T01:11:17;102124.22;;;2.55;100.00
63808;BME280;49961;43.970;22.868;2023-03-29T01:12:26;102046.81;;;2.07;100.00
63808;BME280;49961;43.970;22.868;2023-03-29T01:15:00;102122.63;;;2.54;100.00
63808;BME280;49961;43.970;22.868;2023-03-29T01:16:02;102105.75;;;2.40;100.00
63808;BME280;49961;43.970;22.868;2023-03-29T01:17:03;102125.59;;;2.61;100.00
63808;BME280;49961;43.970;22.868;2023-03-29T01:18:03;102124.78;;;2.61;100.00
63808;BME280;49961;43.970;22.868;2023-03-29T01:19:08;102120.78;;;2.58;100.00
63808;BME280;49961;43.970;22.868;2023-03-29T01:20:14;102122.75;;;2.58;100.00
63808;BME280;49961;43.970;22.868;2023-03-29T01:21:24;102124.22;;;2.55;100.00
63808;BME280;49961;43.970;22.868;2023-03-29T01:25:14;102126.75;;;2.48;100.00
63808;BME280;49961;43.970;22.868;2023-03-29T01:29:08;102128.88;;;2.55;100.00
63808;BME280;49961;43.970;22.868;2023-03-29T01:30:17;102125.94;;;2.60;100.00
63808;BME280;49961;43.970;22.868;2023-03-29T01:31:23;102127.06;;;2.59;100.00
63808;BME280;49961;43.970;22.868;2023-03-29T01:32:32;102021.94;;;1.88;100.00
63808;BME280;49961;43.970;22.868;2023-03-29T01:33:44;102139.59;;;2.60;100.00
63808;BME280;49961;43.970;22.868;2023-03-29T01:35:58;102047.50;;;2.16;100.00
63808;BME280;49961;43.970;22.868;2023-03-29T01:37:10;102113.50;;;2.62;100.00
63808;BME280;49961;43.970;22.868;2023-03-29T01:38:19;102118.53;;;2.60;100.00
63808;BME280;49961;43.970;22.868;2023-03-29T01:39:20;102111.09;;;2.61;100.00
63808;BME280;49961;43.970;22.868;2023-03-29T01:40:22;102047.47;;;2.04;100.00
63808;BME280;49961;43.970;22.868;2023-03-29T01:41:30;102122.19;;;2.64;100.00
63808;BME280;49961;43.970;22.868;2023-03-29T01:42:40;102117.38;;;2.61;100.00
63808;BME280;49961;43.970;22.868;2023-03-29T01:43:55;102117.47;;;2.65;100.00
63808;BME280;49961;43.970;22.868;2023-03-29T01:45:07;102018.09;;;2.01;100.00
63808;BME280;49961;43.970;22.868;2023-03-29T01:49:06;102125.13;;;2.71;100.00
63808;BME280;49961;43.970;22.868;2023-03-29T01:50:49;102120.22;;;2.77;100.00
63808;BME280;49961;43.970;22.868;2023-03-29T01:53:02;102027.34;;;2.08;100.00
63808;BME280;49961;43.970;22.868;2023-03-29T01:55:13;102047.03;;;2.38;100.00
63808;BME280;49961;43.970;22.868;2023-03-29T01:56:20;102118.97;;;2.86;100.00
63808;BME280;49961;43.970;22.868;2023-03-29T01:57:24;102124.88;;;2.88;100.00
63808;BME280;49961;43.970;22.868;2023-03-29T01:58:28;102117.91;;;2.91;100.00
63808;BME280;49961;43.970;22.868;2023-03-29T01:59:34;102076.13;;;2.54;100.00
63808;BME280;49961;43.970;22.868;2023-03-29T02:00:38;102121.81;;;2.90;100.00
63808;BME280;49961;43.970;22.868;2023-03-29T02:01:45;102059.34;;;2.56;100.00
63808;BME280;49961;43.970;22.868;2023-03-29T02:02:49;102113.25;;;2.91;100.00
63808;BME280;49961;43.970;22.868;2023-03-29T02:03:53;102120.56;;;2.87;100.00
63808;BME280;49961;43.970;22.868;2023-03-29T02:04:56;102090.47;;;2.75;100.00
63808;BME280;49961;43.970;22.868;2023-03-29T02:05:58;102121.13;;;2.93;100.00
63808;BME280;49961;43.970;22.868;2023-03-29T02:07:01;102111.19;;;2.88;100.00
63808;BME280;49961;43.970;22.868;2023-03-29T02:08:03;102120.88;;;2.98;100.00
63808;BME280;49961;43.970;22.868;2023-03-29T02:09:05;102106.19;;;2.78;100.00
63808;BME280;49961;43.970;22.868;2023-03-29T02:10:07;102125.47;;;2.94;100.00
63808;BME280;49961;43.970;22.868;2023-03-29T02:11:08;102125.13;;;2.95;100.00
63808;BME280;49961;43.970;22.868;2023-03-29T02:12:09;102119.97;;;2.94;100.00
63808;BME280;49961;43.970;22.868;2023-03-29T02:13:11;102126.59;;;2.93;100.00
63808;BME280;49961;43.970;22.868;2023-03-29T02:14:11;102125.69;;;2.89;100.00
63808;BME280;49961;43.970;22.868;2023-03-29T02:15:17;102120.31;;;2.92;100.00
63808;BME280;49961;43.970;22.868;2023-03-29T02:16:19;102124.41;;;2.98;100.00
63808;BME280;49961;43.970;22.868;2023-03-29T02:17:22;102137.88;;;2.91;100.00
63808;BME280;49961;43.970;22.868;2023-03-29T02:18:23;102134.47;;;2.94;100.00
63808;BME280;49961;43.970;22.868;2023-03-29T02:19:24;102130.13;;;2.93;100.00
63808;BME280;49961;43.970;22.868;2023-03-29T02:20:28;102133.22;;;2.92;100.00
63808;BME280;49961;43.970;22.868;2023-03-29T02:23:54;102126.03;;;2.87;100.00
63808;BME280;49961;43.970;22.868;2023-03-29T02:24:57;102121.81;;;2.90;100.00
63808;BME280;49961;43.970;22.868;2023-03-29T02:26:01;102029.84;;;2.25;100.00
63808;BME280;49961;43.970;22.868;2023-03-29T02:27:03;102135.16;;;2.91;100.00
63808;BME280;49961;43.970;22.868;2023-03-29T02:28:05;102136.84;;;2.96;100.00
63808;BME280;49961;43.970;22.868;2023-03-29T02:29:06;102130.34;;;3.00;100.00
63808;BME280;49961;43.970;22.868;2023-03-29T02:30:08;102135.59;;;3.05;100.00
63808;BME280;49961;43.970;22.868;2023-03-29T02:31:33;102154.06;;;3.08;100.00
63808;BME280;49961;43.970;22.868;2023-03-29T02:32:48;102141.28;;;3.12;100.00
63808;BME280;49961;43.970;22.868;2023-03-29T02:34:03;102083.94;;;2.80;100.00
63808;BME280;49961;43.970;22.868;2023-03-29T02:35:11;102138.31;;;3.17;100.00
63808;BME280;49961;43.970;22.868;2023-03-29T02:37:18;102140.38;;;3.20;100.00
63808;BME280;49961;43.970;22.868;2023-03-29T02:38:20;102148.69;;;3.24;100.00
63808;BME280;49961;43.970;22.868;2023-03-29T02:39:21;102025.13;;;2.50;100.00
63808;BME280;49961;43.970;22.868;2023-03-29T02:40:24;102150.03;;;3.30;100.00
63808;BME280;49961;43.970;22.868;2023-03-29T02:41:25;102147.88;;;3.35;100.00
63808;BME280;49961;43.970;22.868;2023-03-29T02:42:26;102145.91;;;3.36;100.00
63808;BME280;49961;43.970;22.868;2023-03-29T02:43:27;102143.16;;;3.36;100.00
63808;BME280;49961;43.970;22.868;2023-03-29T02:44:31;102142.13;;;3.40;100.00
63808;BME280;49961;43.970;22.868;2023-03-29T02:45:32;102137.53;;;3.44;100.00
63808;BME280;49961;43.970;22.868;2023-03-29T02:46:34;102139.84;;;3.42;100.00
63808;BME280;49961;43.970;22.868;2023-03-29T02:47:40;102133.78;;;3.37;100.00
63808;BME280;49961;43.970;22.868;2023-03-29T02:48:45;102147.63;;;3.40;100.00
63808;BME280;49961;43.970;22.868;2023-03-29T02:49:47;102009.06;;;2.60;100.00
63808;BME280;49961;43.970;22.868;2023-03-29T02:50:50;102088.44;;;3.12;100.00
63808;BME280;49961;43.970;22.868;2023-03-29T02:51:54;102142.66;;;3.46;100.00
63808;BME280;49961;43.970;22.868;2023-03-29T02:52:59;102149.66;;;3.43;100.00
63808;BME280;49961;43.970;22.868;2023-03-29T02:54:16;102038.09;;;2.77;100.00
63808;BME280;49961;43.970;22.868;2023-03-29T02:55:22;102124.69;;;3.33;100.00
63808;BME280;49961;43.970;22.868;2023-03-29T02:56:23;102147.81;;;3.47;100.00
63808;BME280;49961;43.970;22.868;2023-03-29T02:57:25;102142.22;;;3.44;100.00
63808;BME280;49961;43.970;22.868;2023-03-29T02:58:25;102146.72;;;3.36;100.00
63808;BME280;49961;43.970;22.868;2023-03-29T02:59:28;102144.50;;;3.42;100.00
63808;BME280;49961;43.970;22.868;2023-03-29T03:00:29;102083.69;;;2.97;100.00
63808;BME280;49961;43.970;22.868;2023-03-29T03:01:29;102151.34;;;3.48;100.00
63808;BME280;49961;43.970;22.868;2023-03-29T03:02:30;102146.41;;;3.53;100.00
63808;BME280;49961;43.970;22.868;2023-03-29T03:03:30;102150.31;;;3.52;100.00
63808;BME280;49961;43.970;22.868;2023-03-29T03:04:31;102042.88;;;2.92;100.00
63808;BME280;49961;43.970;22.868;2023-03-29T03:05:34;102148.47;;;3.56;100.00
63808;BME280;49961;43.970;22.868;2023-03-29T03:06:36;102150.50;;;3.59;100.00
63808;BME280;49961;43.970;22.868;2023-03-29T03:07:37;102150.25;;;3.64;100.00
63808;BME280;49961;43.970;22.868;2023-03-29T03:08:39;102148.41;;;3.68;100.00
63808;BME280;49961;43.970;22.868;2023-03-29T03:09:40;102157.06;;;3.70;100.00
63808;BME280;49961;43.970;22.868;2023-03-29T03:10:41;102147.00;;;3.74;100.00
63808;BME280;49961;43.970;22.868;2023-03-29T03:11:41;102149.84;;;3.78;100.00
63808;BME280;49961;43.970;22.868;2023-03-29T03:12:42;102154.66;;;3.81;100.00
63808;BME280;49961;43.970;22.868;2023-03-29T03:13:42;102148.81;;;3.82;100.00
63808;BME280;49961;43.970;22.868;2023-03-29T03:14:43;102104.31;;;3.46;100.00
63808;BME280;49961;43.970;22.868;2023-03-29T03:15:43;102110.84;;;3.41;100.00
63808;BME280;49961;43.970;22.868;2023-03-29T03:16:48;102152.00;;;3.84;100.00
63808;BME280;49961;43.970;22.868;2023-03-29T03:17:49;102141.13;;;3.88;100.00
63808;BME280;49961;43.970;22.868;2023-03-29T03:18:50;102147.50;;;3.92;100.00
63808;BME280;49961;43.970;22.868;2023-03-29T03:19:51;102151.06;;;3.92;100.00
63808;BME280;49961;43.970;22.868;2023-03-29T03:20:58;102153.44;;;3.94;100.00
63808;BME280;49961;43.970;22.868;2023-03-29T03:22:00;102152.66;;;3.93;100.00
63808;BME280;49961;43.970;22.868;2023-03-29T03:23:01;102148.66;;;3.91;100.00
63808;BME280;49961;43.970;22.868;2023-03-29T03:24:03;102040.00;;;3.28;100.00
63808;BME280;49961;43.970;22.868;2023-03-29T03:25:05;102141.66;;;3.93;100.00
63808;BME280;49961;43.970;22.868;2023-03-29T03:26:05;102154.91;;;3.91;100.00
63808;BME280;49961;43.970;22.868;2023-03-29T03:27:07;102132.97;;;3.76;100.00
63808;BME280;49961;43.970;22.868;2023-03-29T03:28:08;102157.66;;;3.91;100.00
63808;BME280;49961;43.970;22.868;2023-03-29T03:29:08;102154.16;;;3.91;100.00
63808;BME280;49961;43.970;22.868;2023-03-29T03:30:09;102153.59;;;3.85;100.00
63808;BME280;49961;43.970;22.868;2023-03-29T03:31:10;102164.94;;;3.84;100.00
63808;BME280;49961;43.970;22.868;2023-03-29T03:32:13;102116.91;;;3.62;100.00
63808;BME280;49961;43.970;22.868;2023-03-29T03:33:13;102153.22;;;3.71;100.00
63808;BME280;49961;43.970;22.868;2023-03-29T03:34:14;102130.31;;;3.52;100.00
63808;BME280;49961;43.970;22.868;2023-03-29T03:35:14;102147.81;;;3.47;100.00
63808;BME280;49961;43.970;22.868;2023-03-29T03:36:15;102152.47;;;3.47;100.00
63808;BME280;49961;43.970;22.868;2023-03-29T03:37:15;102156.63;;;3.41;100.00
63808;BME280;49961;43.970;22.868;2023-03-29T03:38:17;102156.19;;;3.39;100.00
63808;BME280;49961;43.970;22.868;2023-03-29T03:39:17;102155.72;;;3.37;100.00
63808;BME280;49961;43.970;22.868;2023-03-29T03:40:18;102157.19;;;3.34;100.00
63808;BME280;49961;43.970;22.868;2023-03-29T03:41:18;102175.94;;;3.32;100.00
63808;BME280;49961;43.970;22.868;2023-03-29T03:42:19;102147.19;;;3.26;100.00
63808;BME280;49961;43.970;22.868;2023-03-29T03:43:19;102154.50;;;3.22;100.00
63808;BME280;49961;43.970;22.868;2023-03-29T03:44:20;102162.81;;;3.26;100.00
63808;BME280;49961;43.970;22.868;2023-03-29T03:45:20;102143.19;;;3.24;100.00
63808;BME280;49961;43.970;22.868;2023-03-29T03:46:21;102153.59;;;3.18;100.00
63808;BME280;49961;43.970;22.868;2023-03-29T03:47:21;102157.13;;;3.19;100.00
63808;BME280;49961;43.970;22.868;2023-03-29T03:48:23;102159.97;;;3.22;100.00
63808;BME280;49961;43.970;22.868;2023-03-29T03:49:24;102157.25;;;3.22;100.00
63808;BME280;49961;43.970;22.868;2023-03-29T03:50:24;102158.63;;;3.16;100.00
63808;BME280;49961;43.970;22.868;2023-03-29T03:51:25;102159.41;;;3.17;100.00
63808;BME280;49961;43.970;22.868;2023-03-29T03:52:26;102160.22;;;3.17;100.00
63808;BME280;49961;43.970;22.868;2023-03-29T03:53:26;102134.22;;;2.99;100.00
63808;BME280;49961;43.970;22.868;2023-03-29T03:54:27;102165.13;;;3.12;100.00
63808;BME280;49961;43.970;22.868;2023-03-29T03:55:28;102158.06;;;3.11;100.00
63808;BME280;49961;43.970;22.868;2023-03-29T03:56:29;102151.56;;;3.03;100.00
63808;BME280;49961;43.970;22.868;2023-03-29T03:57:29;102151.00;;;2.98;100.00
63808;BME280;49961;43.970;22.868;2023-03-29T03:58:32;102153.50;;;2.91;100.00
63808;BME280;49961;43.970;22.868;2023-03-29T03:59:32;102156.47;;;2.86;100.00
63808;BME280;49961;43.970;22.868;2023-03-29T04:00:33;102153.63;;;2.82;100.00
63808;BME280;49961;43.970;22.868;2023-03-29T04:01:33;102153.88;;;2.77;100.00
63808;BME280;49961;43.970;22.868;2023-03-29T04:02:34;102164.94;;;2.81;100.00
63808;BME280;49961;43.970;22.868;2023-03-29T04:03:35;102155.34;;;2.75;100.00
63808;BME280;49961;43.970;22.868;2023-03-29T04:04:36;102156.50;;;2.74;100.00
63808;BME280;49961;43.970;22.868;2023-03-29T04:05:40;102154.31;;;2.67;100.00
63808;BME280;49961;43.970;22.868;2023-03-29T04:06:41;102154.31;;;2.67;100.00
63808;BME280;49961;43.970;22.868;2023-03-29T04:07:43;102159.78;;;2.67;100.00
63808;BME280;49961;43.970;22.868;2023-03-29T04:08:43;102156.38;;;2.70;100.00
63808;BME280;49961;43.970;22.868;2023-03-29T04:09:44;102161.53;;;2.72;100.00
63808;BME280;49961;43.970;22.868;2023-03-29T04:10:52;102173.59;;;2.71;100.00
63808;BME280;49961;43.970;22.868;2023-03-29T04:11:54;102168.94;;;2.71;100.00
63808;BME280;49961;43.970;22.868;2023-03-29T04:12:55;102176.00;;;2.60;100.00
63808;BME280;49961;43.970;22.868;2023-03-29T04:13:55;102170.19;;;2.62;100.00
63808;BME280;49961;43.970;22.868;2023-03-29T04:14:56;102173.97;;;2.69;100.00
63808;BME280;49961;43.970;22.868;2023-03-29T04:15:57;102172.94;;;2.74;100.00
63808;BME280;49961;43.970;22.868;2023-03-29T04:16:57;102175.78;;;2.77;100.00
63808;BME280;49961;43.970;22.868;2023-03-29T04:17:58;102055.00;;;1.95;100.00
63808;BME280;49961;43.970;22.868;2023-03-29T04:18:59;102102.88;;;2.25;100.00
63808;BME280;49961;43.970;22.868;2023-03-29T04:20:00;102157.28;;;2.62;100.00
63808;BME280;49961;43.970;22.868;2023-03-29T04:21:05;102183.53;;;2.75;100.00
63808;BME280;49961;43.970;22.868;2023-03-29T04:22:05;102178.97;;;2.79;100.00
63808;BME280;49961;43.970;22.868;2023-03-29T04:23:05;102209.31;;;2.74;100.00
63808;BME280;49961;43.970;22.868;2023-03-29T04:24:06;102158.44;;;2.61;100.00
63808;BME280;49961;43.970;22.868;2023-03-29T04:25:07;102188.09;;;2.83;100.00
63808;BME280;49961;43.970;22.868;2023-03-29T04:26:09;102182.16;;;2.81;100.00
63808;BME280;49961;43.970;22.868;2023-03-29T04:27:11;102193.13;;;2.81;100.00
63808;BME280;49961;43.970;22.868;2023-03-29T04:28:11;102190.16;;;2.86;100.00
63808;BME280;49961;43.970;22.868;2023-03-29T04:29:12;102215.72;;;2.90;100.00
63808;BME280;49961;43.970;22.868;2023-03-29T04:30:12;102189.25;;;2.94;100.00
63808;BME280;49961;43.970;22.868;2023-03-29T04:31:13;102173.50;;;2.79;100.00
63808;BME280;49961;43.970;22.868;2023-03-29T04:32:14;102189.81;;;2.88;100.00
63808;BME280;49961;43.970;22.868;2023-03-29T04:33:14;102191.97;;;2.94;100.00
63808;BME280;49961;43.970;22.868;2023-03-29T04:34:15;102176.56;;;2.90;100.00
63808;BME280;49961;43.970;22.868;2023-03-29T04:35:15;102166.53;;;2.82;100.00
63808;BME280;49961;43.970;22.868;2023-03-29T04:36:16;102121.25;;;2.60;100.00
63808;BME280;49961;43.970;22.868;2023-03-29T04:37:17;102163.91;;;2.97;100.00
63808;BME280;49961;43.970;22.868;2023-03-29T04:38:21;102177.78;;;3.04;100.00
63808;BME280;49961;43.970;22.868;2023-03-29T04:39:22;102178.47;;;3.13;100.00
63808;BME280;49961;43.970;22.868;2023-03-29T04:40:30;102138.16;;;2.74;100.00
63808;BME280;49961;43.970;22.868;2023-03-29T04:41:33;102183.97;;;3.13;100.00
63808;BME280;49961;43.970;22.868;2023-03-29T04:42:36;102183.50;;;3.11;100.00
63808;BME280;49961;43.970;22.868;2023-03-29T04:43:37;102101.88;;;2.41;100.00
63808;BME280;49961;43.970;22.868;2023-03-29T04:44:38;102191.06;;;2.90;100.00
63808;BME280;49961;43.970;22.868;2023-03-29T04:45:39;102199.28;;;2.90;100.00
63808;BME280;49961;43.970;22.868;2023-03-29T04:46:39;102163.56;;;2.75;100.00
63808;BME280;49961;43.970;22.868;2023-03-29T04:47:40;102214.56;;;2.91;100.00
63808;BME280;49961;43.970;22.868;2023-03-29T04:48:41;102160.38;;;2.73;100.00
63808;BME280;49961;43.970;22.868;2023-03-29T04:49:41;102193.69;;;2.99;100.00
63808;BME280;49961;43.970;22.868;2023-03-29T04:50:45;102212.75;;;2.95;100.00
63808;BME280;49961;43.970;22.868;2023-03-29T04:51:46;102190.03;;;2.95;100.00
63808;BME280;49961;43.970;22.868;2023-03-29T04:52:46;102198.59;;;3.05;100.00
63808;BME280;49961;43.970;22.868;2023-03-29T04:53:49;102200.19;;;3.06;100.00
63808;BME280;49961;43.970;22.868;2023-03-29T04:54:50;102198.69;;;3.09;100.00
63808;BME280;49961;43.970;22.868;2023-03-29T04:55:50;102207.13;;;3.16;100.00
63808;BME280;49961;43.970;22.868;2023-03-29T04:56:52;102202.13;;;3.18;100.00
63808;BME280;49961;43.970;22.868;2023-03-29T04:57:52;102208.72;;;3.17;100.00
63808;BME280;49961;43.970;22.868;2023-03-29T04:58:53;102188.53;;;3.09;100.00
63808;BME280;49961;43.970;22.868;2023-03-29T04:59:54;102204.72;;;3.26;100.00
63808;BME280;49961;43.970;22.868;2023-03-29T05:00:55;102200.84;;;3.27;100.00
63808;BME280;49961;43.970;22.868;2023-03-29T05:01:59;102204.16;;;3.33;100.00
63808;BME280;49961;43.970;22.868;2023-03-29T05:03:02;102155.78;;;3.01;100.00
63808;BME280;49961;43.970;22.868;2023-03-29T05:04:03;102204.25;;;3.36;100.00
63808;BME280;49961;43.970;22.868;2023-03-29T05:05:04;102206.66;;;3.38;100.00
63808;BME280;49961;43.970;22.868;2023-03-29T05:06:06;102205.16;;;3.40;100.00
63808;BME280;49961;43.970;22.868;2023-03-29T05:07:07;102176.22;;;3.15;100.00
63808;BME280;49961;43.970;22.868;2023-03-29T05:08:08;102210.06;;;3.35;100.00
63808;BME280;49961;43.970;22.868;2023-03-29T05:09:09;102207.00;;;3.36;100.00
63808;BME280;49961;43.970;22.868;2023-03-29T05:10:10;102202.66;;;3.35;100.00
63808;BME280;49961;43.970;22.868;2023-03-29T05:11:10;102199.22;;;3.38;100.00
63808;BME280;49961;43.970;22.868;2023-03-29T05:12:12;102207.91;;;3.40;100.00
63808;BME280;49961;43.970;22.868;2023-03-29T05:13:13;102214.03;;;3.49;100.00
63808;BME280;49961;43.970;22.868;2023-03-29T05:14:13;102213.13;;;3.57;100.00
63808;BME280;49961;43.970;22.868;2023-03-29T05:15:14;102206.56;;;3.62;100.00
63808;BME280;49961;43.970;22.868;2023-03-29T05:16:14;102212.97;;;3.66;100.00
63808;BME280;49961;43.970;22.868;2023-03-29T05:17:15;102191.44;;;3.52;100.00
63808;BME280;49961;43.970;22.868;2023-03-29T05:18:16;102211.03;;;3.66;100.00
63808;BME280;49961;43.970;22.868;2023-03-29T05:19:16;102216.16;;;3.68;100.00
63808;BME280;49961;43.970;22.868;2023-03-29T05:20:20;102217.41;;;3.70;100.00
63808;BME280;49961;43.970;22.868;2023-03-29T05:21:22;102214.78;;;3.74;100.00
63808;BME280;49961;43.970;22.868;2023-03-29T05:22:23;102211.09;;;3.82;100.00
63808;BME280;49961;43.970;22.868;2023-03-29T05:23:24;102146.38;;;3.38;100.00
63808;BME280;49961;43.970;22.868;2023-03-29T05:24:24;102217.38;;;3.82;100.00
63808;BME280;49961;43.970;22.868;2023-03-29T05:25:25;102216.03;;;3.76;100.00
63808;BME280;49961;43.970;22.868;2023-03-29T05:26:26;102237.81;;;3.85;100.00
63808;BME280;49961;43.970;22.868;2023-03-29T05:27:27;102222.63;;;3.75;100.00
63808;BME280;49961;43.970;22.868;2023-03-29T05:28:27;102161.41;;;3.44;100.00
63808;BME280;49961;43.970;22.868;2023-03-29T05:29:28;102216.66;;;3.85;100.00
63808;BME280;49961;43.970;22.868;2023-03-29T05:30:28;102218.63;;;3.85;100.00
63808;BME280;49961;43.970;22.868;2023-03-29T05:31:29;102223.31;;;3.84;100.00
63808;BME280;49961;43.970;22.868;2023-03-29T05:32:29;102224.75;;;3.94;100.00
63808;BME280;49961;43.970;22.868;2023-03-29T05:33:30;102218.41;;;4.05;100.00
63808;BME280;49961;43.970;22.868;2023-03-29T05:34:30;102224.47;;;4.11;100.00
63808;BME280;49961;43.970;22.868;2023-03-29T05:35:31;102227.38;;;4.18;100.00
63808;BME280;49961;43.970;22.868;2023-03-29T05:36:32;102211.25;;;4.16;100.00
63808;BME280;49961;43.970;22.868;2023-03-29T05:37:32;102225.88;;;4.20;100.00
63808;BME280;49961;43.970;22.868;2023-03-29T05:38:33;102229.53;;;4.24;100.00
63808;BME280;49961;43.970;22.868;2023-03-29T05:39:34;102201.94;;;4.05;100.00
63808;BME280;49961;43.970;22.868;2023-03-29T05:40:36;102228.38;;;4.25;100.00
63808;BME280;49961;43.970;22.868;2023-03-29T05:41:37;102145.44;;;3.73;100.00
63808;BME280;49961;43.970;22.868;2023-03-29T05:42:37;102236.16;;;4.23;100.00
63808;BME280;49961;43.970;22.868;2023-03-29T05:43:38;102191.03;;;3.93;100.00